Safford, Alabama
Current Conditions -  °F | °C
As of 9:55 AM on Sunday 21 Dec 2014 (Local Time) from KSEM Reporting Station
Overcast Overcast  
Wind Chill: 52°   Ceiling: 800
Heat Index: 52°   Visibility: 7mi
Dew Point: 48°   Wind: 6mph
Humidity: 88%   Direction: 60°ENE
Pressure: 30.16"   Gusts: NA
Location:  32.29°N, 87.37°W
Report Text: KSEM 211555Z AUTO 06005KT 7SM OVC008 11/09 A3016 RMK AO2
Loading
Personal Weather Stations






























Interactive Weather Map New forecast layout! Learn more

10-Day Weather Forecast

Advertisements
Track Severe Weather on mobile